Time;durP1;ratioP1;P1;durP2;ratioP2;P2;SDS_P1;SDS_P2;PMS_P1;PMS_P2;Temp;Humidity;BMP_temperature;BMP_pressure;BME280_temperature;BME280_humidity;BME280_pressure;Samples;Min_cycle;Max_cycle;Signal;HPM_P1;HPM_P2
2021/05/28 00:02:06;;;;;;;3.75;0.82;;;8.50;99.90;;;;;;5059910;28;20035;-84
2021/05/28 00:04:31;;;;;;;3.03;0.88;;;8.40;99.90;;;;;;5057412;28;20468;-83
2021/05/28 00:06:57;;;;;;;1.73;1.10;;;8.40;99.90;;;;;;5056621;28;20472;-83
2021/05/28 00:09:23;;;;;;;4.63;1.00;;;8.40;99.90;;;;;;5056589;28;20068;-83
2021/05/28 00:11:49;;;;;;;46.28;2.28;;;8.30;99.90;;;;;;5055056;28;20013;-83
2021/05/28 00:14:14;;;;;;;34.70;1.60;;;8.20;99.90;;;;;;5058484;28;20103;-83
2021/05/28 00:16:40;;;;;;;3.90;1.40;;;8.20;99.90;;;;;;5058033;28;20021;-83
2021/05/28 00:19:05;;;;;;;11.25;1.45;;;8.00;99.90;;;;;;5058022;28;20113;-83
2021/05/28 00:21:31;;;;;;;13.52;1.42;;;7.90;99.90;;;;;;5057323;28;20017;-83
2021/05/28 00:23:57;;;;;;;3.28;0.82;;;7.80;99.90;;;;;;5057431;28;20021;-83
2021/05/28 00:26:22;;;;;;;1.60;0.90;;;7.80;99.90;;;;;;5056494;28;20062;-83
2021/05/28 00:28:49;;;;;;;2.03;1.30;;;7.80;99.90;;;;;;5054659;28;20055;-83
2021/05/28 00:31:19;;;;;;;4.00;1.40;;;7.90;99.90;;;;;;5056910;28;20024;-83
2021/05/28 00:33:45;;;;;;;;;;;8.00;99.90;;;;;;5073544;28;20100;-83
2021/05/28 00:36:10;;;;;;;3.28;1.90;;;7.90;99.90;;;;;;5074675;28;19962;-83
2021/05/28 00:38:36;;;;;;;3.22;2.13;;;7.90;99.90;;;;;;5056693;28;20033;-83
2021/05/28 00:41:02;;;;;;;3.40;2.00;;;8.00;99.90;;;;;;5057287;28;20031;-83
2021/05/28 00:43:28;;;;;;;3.17;1.95;;;7.90;99.90;;;;;;5056088;28;20092;-83
2021/05/28 00:45:54;;;;;;;3.25;2.13;;;7.90;99.90;;;;;;5055714;28;20102;-83
2021/05/28 00:48:19;;;;;;;5.35;2.17;;;7.90;99.90;;;;;;5057714;28;20032;-83
2021/05/28 00:50:45;;;;;;;2.65;1.90;;;7.90;99.90;;;;;;5056012;28;20579;-83
2021/05/28 00:53:11;;;;;;;2.60;1.83;;;7.90;99.90;;;;;;5055780;28;20025;-83
2021/05/28 00:55:37;;;;;;;3.28;1.80;;;7.90;99.90;;;;;;5055661;28;20071;-83
2021/05/28 00:58:03;;;;;;;2.88;1.65;;;7.90;99.90;;;;;;5057774;28;20028;-83
2021/05/28 01:00:29;;;;;;;2.20;1.55;;;7.90;99.90;;;;;;5058058;28;20025;-83
2021/05/28 01:02:55;;;;;;;2.38;1.55;;;7.90;99.90;;;;;;5055750;28;20025;-83
2021/05/28 01:05:21;;;;;;;2.35;1.63;;;7.90;99.90;;;;;;5057446;28;20103;-82
2021/05/28 01:07:47;;;;;;;3.58;1.55;;;7.80;99.90;;;;;;5055927;28;20033;-83
2021/05/28 01:10:14;;;;;;;3.38;1.80;;;7.80;99.90;;;;;;5054283;28;20029;-83
2021/05/28 01:12:39;;;;;;;3.05;2.25;;;7.80;99.90;;;;;;5055303;28;20029;-83
2021/05/28 01:15:06;;;;;;;37.00;2.70;;;7.80;99.90;;;;;;5057621;28;20021;-83
2021/05/28 01:17:33;;;;;;;20.52;1.67;;;7.70;99.90;;;;;;5059126;28;20013;-83
2021/05/28 01:19:58;;;;;;;9.15;1.48;;;7.60;99.90;;;;;;5055105;28;20056;-83
2021/05/28 01:22:24;;;;;;;1.85;1.17;;;7.60;99.90;;;;;;5057370;28;20051;-83
2021/05/28 01:24:49;;;;;;;6.68;1.92;;;7.60;99.90;;;;;;5055839;28;20434;-83
2021/05/28 01:27:17;;;;;;;5.75;2.10;;;7.60;99.90;;;;;;5055335;28;20075;-83
2021/05/28 01:29:43;;;;;;;10.07;2.35;;;7.60;99.90;;;;;;5053555;28;20044;-83
2021/05/28 01:32:09;;;;;;;4.03;2.70;;;7.60;99.90;;;;;;5057270;28;20017;-83
2021/05/28 01:34:34;;;;;;;5.47;2.78;;;7.60;99.90;;;;;;5058871;28;20467;-83
2021/05/28 01:37:00;;;;;;;2.85;2.53;;;7.60;99.90;;;;;;5055973;28;20495;-83
2021/05/28 01:39:25;;;;;;;3.15;1.98;;;7.60;99.90;;;;;;5058662;28;20055;-83
2021/05/28 01:41:51;;;;;;;3.53;2.70;;;7.60;99.90;;;;;;5067082;28;20522;-83
2021/05/28 01:44:17;;;;;;;4.03;2.55;;;7.70;99.90;;;;;;5056131;28;20590;-83
2021/05/28 01:46:43;;;;;;;5.68;2.20;;;7.70;99.90;;;;;;5055050;28;20025;-84
2021/05/28 01:49:09;;;;;;;3.88;2.22;;;7.60;99.90;;;;;;5053533;28;20024;-83
2021/05/28 01:51:34;;;;;;;3.53;2.70;;;7.60;99.90;;;;;;5055725;28;20100;-83
2021/05/28 01:54:01;;;;;;;5.28;2.25;;;7.60;99.90;;;;;;5056896;28;20022;-83
2021/05/28 01:56:29;;;;;;;3.95;2.58;;;7.60;99.90;;;;;;5053816;28;20025;-83
2021/05/28 01:58:55;;;;;;;5.57;2.40;;;7.60;99.90;;;;;;5055326;28;20473;-83
2021/05/28 02:01:20;;;;;;;48.95;3.08;;;7.60;99.90;;;;;;5054146;28;20021;-83
2021/05/28 02:03:46;;;;;;;25.98;2.20;;;7.60;99.90;;;;;;5059111;28;20028;-84
2021/05/28 02:06:11;;;;;;;42.65;2.08;;;7.50;99.90;;;;;;5055873;28;20369;-84
2021/05/28 02:08:37;;;;;;;37.53;1.35;;;7.40;99.90;;;;;;5056158;28;20083;-84
2021/05/28 02:11:04;;;;;;;19.95;1.02;;;7.30;99.90;;;;;;5059083;28;20013;-84
2021/05/28 02:13:29;;;;;;;5.53;0.63;;;7.30;99.90;;;;;;5054525;28;20468;-83
2021/05/28 02:15:55;;;;;;;12.40;0.57;;;7.20;99.90;;;;;;5060231;28;20025;-83
2021/05/28 02:18:22;;;;;;;9.93;0.55;;;7.20;99.90;;;;;;5054011;28;20092;-84
2021/05/28 02:20:48;;;;;;;7.45;0.68;;;7.10;99.90;;;;;;5058259;28;20074;-83
2021/05/28 02:23:14;;;;;;;6.72;0.60;;;7.10;99.90;;;;;;5055862;28;20028;-83
2021/05/28 02:25:39;;;;;;;5.43;0.52;;;7.10;99.90;;;;;;5054698;28;20021;-83
2021/05/28 02:28:05;;;;;;;1.40;0.50;;;7.10;99.90;;;;;;5055757;28;20059;-83
2021/05/28 02:30:31;;;;;;;14.65;0.90;;;7.00;99.90;;;;;;5054322;28;20021;-83
2021/05/28 02:32:57;;;;;;;3.47;0.70;;;7.00;99.90;;;;;;5054510;28;20029;-83
2021/05/28 02:35:22;;;;;;;0.90;0.60;;;7.00;99.90;;;;;;5053498;28;20063;-83
2021/05/28 02:37:48;;;;;;;11.50;0.60;;;7.00;99.90;;;;;;5056933;28;20031;-83
2021/05/28 02:40:14;;;;;;;3.63;0.57;;;7.00;99.90;;;;;;5055199;28;20041;-83
2021/05/28 02:42:40;;;;;;;7.07;0.63;;;6.90;99.90;;;;;;5055837;28;20017;-83
2021/05/28 02:45:06;;;;;;;7.32;0.70;;;6.90;99.90;;;;;;5055496;28;20028;-83
2021/05/28 02:47:32;;;;;;;36.88;1.33;;;6.80;99.90;;;;;;5053113;28;20124;-83
2021/05/28 02:49:59;;;;;;;4.50;0.80;;;6.90;99.90;;;;;;5053447;28;20618;-82
2021/05/28 02:52:25;;;;;;;1.50;0.50;;;6.90;99.90;;;;;;5067285;28;20427;-84
2021/05/28 02:54:50;;;;;;;3.08;0.60;;;6.90;99.90;;;;;;5053292;28;20021;-84
2021/05/28 02:57:16;;;;;;;3.47;0.50;;;7.00;99.90;;;;;;5055698;28;20025;-83
2021/05/28 02:59:41;;;;;;;2.25;0.60;;;7.10;99.90;;;;;;5068874;28;20025;-83
2021/05/28 03:02:07;;;;;;;8.40;1.10;;;7.20;99.90;;;;;;5052943;28;20079;-83
2021/05/28 03:04:33;;;;;;;7.20;1.42;;;7.20;99.90;;;;;;5055303;28;20032;-83
2021/05/28 03:06:58;;;;;;;2.78;1.92;;;7.30;99.90;;;;;;5055590;28;20017;-83
2021/05/28 03:09:24;;;;;;;3.22;1.88;;;7.40;99.90;;;;;;5055633;28;20017;-83
2021/05/28 03:11:50;;;;;;;3.90;2.30;;;7.40;99.90;;;;;;5053966;28;20166;-83
2021/05/28 03:14:17;;;;;;;9.93;3.55;;;7.40;99.90;;;;;;5054596;28;20033;-84
2021/05/28 03:16:42;;;;;;;6.53;2.95;;;7.50;99.90;;;;;;5055814;28;20376;-83
2021/05/28 03:19:18;;;;;;;7.47;4.07;;;7.60;99.90;;;;;;5051333;28;20028;-83
2021/05/28 03:24:28;;;;;;;7.90;4.53;;;7.80;99.90;;;;;;5056029;28;20040;-83
2021/05/28 03:26:53;;;;;;;4.55;3.63;;;7.80;99.90;;;;;;5054188;28;20033;-83
2021/05/28 03:29:19;;;;;;;6.32;3.78;;;7.90;99.90;;;;;;5055023;28;20382;-83
2021/05/28 03:31:44;;;;;;;5.03;3.40;;;7.90;99.90;;;;;;5051769;28;20025;-84
2021/05/28 03:34:10;;;;;;;7.82;4.03;;;8.00;99.90;;;;;;5053121;28;20023;-83
2021/05/28 03:36:36;;;;;;;5.68;4.18;;;8.10;99.90;;;;;;5052497;28;20472;-84
2021/05/28 03:39:02;;;;;;;13.60;4.13;;;8.10;99.90;;;;;;5054573;28;20071;-84
2021/05/28 03:41:28;;;;;;;19.35;5.72;;;8.20;99.90;;;;;;5056392;28;20029;-83
2021/05/28 03:43:53;;;;;;;7.43;5.88;;;8.20;99.90;;;;;;5054029;28;20560;-83
2021/05/28 03:46:19;;;;;;;8.75;5.28;;;8.20;99.90;;;;;;5054719;28;20029;-83
2021/05/28 03:48:44;;;;;;;10.60;5.60;;;8.20;99.90;;;;;;5051835;28;20078;-83
2021/05/28 03:51:11;;;;;;;9.95;4.65;;;8.30;99.90;;;;;;5054082;28;20031;-83
2021/05/28 03:53:37;;;;;;;9.77;4.82;;;8.20;99.90;;;;;;5055287;28;20029;-84
2021/05/28 03:56:02;;;;;;;13.90;4.95;;;8.30;99.90;;;;;;5053403;28;20028;-82
2021/05/28 03:58:28;;;;;;;12.77;5.47;;;8.30;99.90;;;;;;5052417;28;20024;-83
2021/05/28 04:00:53;;;;;;;13.77;6.72;;;8.40;99.90;;;;;;5052328;28;20111;-83
2021/05/28 04:03:19;;;;;;;11.07;6.57;;;8.40;99.90;;;;;;5053840;28;20139;-83
2021/05/28 04:05:44;;;;;;;8.55;4.70;;;8.40;99.90;;;;;;5058116;28;20025;-83
2021/05/28 04:08:10;;;;;;;14.32;5.18;;;8.40;99.90;;;;;;5053938;28;20029;-83
2021/05/28 04:10:35;;;;;;;8.60;5.70;;;8.40;99.90;;;;;;5070703;28;20044;-83
2021/05/28 04:13:01;;;;;;;8.15;5.00;;;8.50;99.90;;;;;;5053178;28;20029;-84
2021/05/28 04:15:26;;;;;;;5.05;3.85;;;8.50;99.90;;;;;;5053225;28;20031;-84
2021/05/28 04:17:52;;;;;;;6.45;4.05;;;8.50;99.90;;;;;;5050908;28;20017;-83
2021/05/28 04:20:18;;;;;;;10.38;4.07;;;8.50;99.90;;;;;;5052115;28;20021;-84
2021/05/28 04:22:45;;;;;;;11.30;3.88;;;8.60;99.90;;;;;;5056829;28;20017;-83
2021/05/28 04:25:11;;;;;;;10.25;4.57;;;8.60;99.90;;;;;;5053802;28;20017;-83
2021/05/28 04:27:36;;;;;;;7.43;4.18;;;8.60;99.90;;;;;;5070615;28;20029;-83
2021/05/28 04:30:03;;;;;;;9.55;4.93;;;8.60;99.90;;;;;;5055771;28;20047;-83
2021/05/28 04:32:28;;;;;;;9.82;4.70;;;8.70;99.90;;;;;;5053258;28;20025;-83
2021/05/28 04:34:54;;;;;;;11.65;4.80;;;8.60;99.90;;;;;;5067724;28;20017;-83
2021/05/28 04:37:19;;;;;;;10.20;4.22;;;8.70;99.90;;;;;;5055204;28;20078;-83
2021/05/28 04:39:45;;;;;;;10.45;4.32;;;8.70;99.90;;;;;;5060228;28;20066;-83
2021/05/28 04:42:12;;;;;;;8.95;4.32;;;8.70;99.90;;;;;;5057434;28;20017;-83
2021/05/28 04:44:38;;;;;;;9.73;4.50;;;8.70;99.90;;;;;;5058717;28;20028;-84
2021/05/28 04:47:03;;;;;;;8.23;4.65;;;8.80;99.90;;;;;;5056693;28;20021;-83
2021/05/28 04:49:29;;;;;;;10.52;4.05;;;8.80;99.90;;;;;;5056233;28;20025;-83
2021/05/28 04:51:55;;;;;;;11.05;3.97;;;8.80;99.90;;;;;;5059175;28;20025;-83
2021/05/28 04:54:20;;;;;;;6.63;4.32;;;8.90;99.90;;;;;;5056786;28;20025;-84
2021/05/28 04:56:46;;;;;;;10.23;4.40;;;8.90;99.90;;;;;;5057346;28;20025;-83
2021/05/28 04:59:11;;;;;;;9.20;3.90;;;9.00;99.90;;;;;;5056016;28;20392;-84
2021/05/28 05:01:37;;;;;;;10.18;3.85;;;9.00;99.90;;;;;;5055524;28;20108;-82
2021/05/28 05:04:03;;;;;;;9.85;3.83;;;9.00;99.90;;;;;;5058011;28;20099;-84
2021/05/28 05:06:28;;;;;;;9.52;4.20;;;9.00;99.90;;;;;;5057422;28;20480;-83
2021/05/28 05:08:54;;;;;;;6.45;5.13;;;9.10;99.90;;;;;;5059065;28;20044;-83
2021/05/28 05:11:19;;;;;;;16.35;6.47;;;9.10;99.90;;;;;;5056452;28;20449;-83
2021/05/28 05:13:45;;;;;;;10.27;6.53;;;9.20;99.90;;;;;;5055369;28;20028;-83
2021/05/28 05:16:10;;;;;;;9.38;6.55;;;9.20;99.90;;;;;;5054823;28;20021;-83
2021/05/28 05:18:36;;;;;;;9.63;6.10;;;9.20;99.90;;;;;;5056743;28;20032;-83
2021/05/28 05:21:02;;;;;;;16.80;8.48;;;9.20;99.90;;;;;;5056691;28;20492;-80
2021/05/28 05:23:27;;;;;;;22.65;9.40;;;9.30;99.90;;;;;;5060786;28;20073;-79
2021/05/28 05:25:53;;;;;;;11.18;8.40;;;9.20;99.90;;;;;;5074919;28;20108;-79
2021/05/28 05:28:18;;;;;;;18.83;8.98;;;9.20;99.90;;;;;;5075023;28;20424;-79
2021/05/28 05:30:44;;;;;;;17.90;10.68;;;9.20;99.90;;;;;;5074427;28;20028;-79
2021/05/28 05:33:11;;;;;;;20.58;9.88;;;9.20;99.90;;;;;;5074516;28;20032;-79
2021/05/28 05:35:37;;;;;;;14.20;8.40;;;9.20;99.90;;;;;;5074496;28;20070;-79
2021/05/28 05:38:07;;;;;;;11.20;8.45;;;9.30;99.90;;;;;;5074173;28;20099;-79
2021/05/28 05:40:33;;;;;;;9.32;7.30;;;9.30;99.90;;;;;;5074179;28;20127;-80
2021/05/28 05:42:58;;;;;;;10.60;6.88;;;9.30;99.90;;;;;;5074268;28;20120;-79
2021/05/28 05:45:24;;;;;;;9.43;6.72;;;9.40;99.90;;;;;;5072975;28;20020;-79
2021/05/28 05:47:49;;;;;;;6.97;5.50;;;9.40;99.90;;;;;;5073671;28;20085;-79
2021/05/28 05:50:15;;;;;;;9.27;5.55;;;9.50;99.90;;;;;;5089565;28;20073;-80
2021/05/28 05:52:41;;;;;;;11.05;6.32;;;9.50;99.90;;;;;;5073748;28;20078;-83
2021/05/28 05:55:08;;;;;;;11.55;7.10;;;9.50;99.90;;;;;;5073720;28;20016;-81
2021/05/28 05:57:33;;;;;;;12.23;8.38;;;9.50;99.90;;;;;;5073807;28;20042;-80
2021/05/28 05:59:59;;;;;;;12.05;7.70;;;9.60;99.90;;;;;;5073262;28;20107;-80
2021/05/28 06:02:27;;;;;;;9.82;6.85;;;9.70;99.90;;;;;;5074698;28;20024;-80
2021/05/28 06:04:52;;;;;;;13.68;9.07;;;9.80;99.90;;;;;;5075019;28;20024;-80
2021/05/28 06:07:18;;;;;;;11.85;8.35;;;9.80;99.90;;;;;;5074817;28;20027;-80
2021/05/28 06:09:43;;;;;;;8.88;6.78;;;9.90;99.90;;;;;;5090395;28;20020;-81
2021/05/28 06:12:09;;;;;;;10.52;7.13;;;9.90;99.90;;;;;;5073878;28;20020;-80
2021/05/28 06:14:34;;;;;;;8.93;6.85;;;10.00;99.90;;;;;;5074044;28;20472;-81
2021/05/28 06:17:00;;;;;;;11.63;8.25;;;10.10;99.90;;;;;;5074045;28;20399;-81
2021/05/28 06:19:25;;;;;;;11.57;9.20;;;10.10;99.90;;;;;;5073896;28;20027;-83
2021/05/28 06:21:52;;;;;;;9.80;7.03;;;10.20;99.90;;;;;;5090202;28;20476;-79
2021/05/28 06:24:18;;;;;;;13.65;8.57;;;10.20;99.90;;;;;;5074114;28;20095;-80
2021/05/28 06:26:43;;;;;;;13.75;7.45;;;10.30;99.90;;;;;;5073610;28;20032;-79
2021/05/28 06:29:10;;;;;;;10.98;7.82;;;10.30;99.90;;;;;;5074152;28;20026;-82
2021/05/28 06:31:36;;;;;;;12.77;8.23;;;10.30;99.90;;;;;;5074316;28;20086;-80
2021/05/28 06:34:02;;;;;;;14.52;8.40;;;10.40;99.90;;;;;;5074107;28;20029;-79
2021/05/28 06:36:29;;;;;;;8.80;6.80;;;10.40;99.90;;;;;;5074201;28;20021;-79
2021/05/28 06:38:54;;;;;;;8.20;6.53;;;10.40;99.90;;;;;;5073347;28;20037;-79
2021/05/28 06:41:20;;;;;;;11.50;7.47;;;10.40;99.90;;;;;;5073275;28;20027;-79
2021/05/28 06:43:47;;;;;;;10.55;7.68;;;10.40;99.90;;;;;;5073674;28;20078;-79
2021/05/28 06:46:12;;;;;;;9.57;6.00;;;10.40;99.90;;;;;;5074263;28;20032;-79
2021/05/28 06:48:38;;;;;;;8.70;5.32;;;10.40;99.90;;;;;;5073827;28;20446;-79
2021/05/28 06:51:03;;;;;;;9.18;5.97;;;10.40;99.90;;;;;;5072586;28;20024;-88
2021/05/28 06:53:30;;;;;;;9.30;6.43;;;10.50;99.90;;;;;;5073658;28;20036;-79
2021/05/28 06:55:56;;;;;;;8.63;6.63;;;10.60;99.90;;;;;;5073934;28;20107;-79
2021/05/28 06:58:21;;;;;;;9.60;6.55;;;10.70;99.90;;;;;;5073624;28;20102;-79
2021/05/28 07:00:48;;;;;;;9.13;6.65;;;10.80;99.90;;;;;;5072890;28;20024;-79
2021/05/28 07:03:13;;;;;;;8.73;6.07;;;11.00;99.90;;;;;;5073658;28;20021;-79
2021/05/28 07:05:39;;;;;;;10.02;6.85;;;11.00;99.90;;;;;;5073640;28;20032;-79
2021/05/28 07:08:05;;;;;;;9.68;6.40;;;11.10;99.90;;;;;;5073598;28;20074;-79
2021/05/28 07:10:31;;;;;;;8.18;6.15;;;11.20;99.90;;;;;;5073512;28;20029;-79
2021/05/28 07:12:57;;;;;;;9.82;7.28;;;11.30;99.90;;;;;;5073252;28;20020;-79
2021/05/28 07:15:22;;;;;;;8.80;7.32;;;11.40;99.90;;;;;;5071357;28;20070;-79
2021/05/28 07:17:48;;;;;;;8.25;6.15;;;11.40;99.90;;;;;;5071598;28;20513;-79
2021/05/28 07:20:14;;;;;;;7.60;5.57;;;11.40;99.90;;;;;;5067382;28;20020;-79
2021/05/28 07:22:40;;;;;;;6.40;4.47;;;11.50;99.90;;;;;;5071948;28;20471;-79
2021/05/28 07:25:06;;;;;;;6.65;4.78;;;11.40;99.90;;;;;;5071178;28;20035;-79
2021/05/28 07:27:32;;;;;;;7.65;4.75;;;11.50;99.90;;;;;;5072514;28;20472;-78
2021/05/28 07:29:57;;;;;;;8.43;6.90;;;11.50;99.90;;;;;;5072841;28;20384;-79
2021/05/28 07:32:23;;;;;;;9.30;7.25;;;11.50;99.90;;;;;;5067768;28;20031;-79
2021/05/28 07:34:49;;;;;;;7.45;6.05;;;11.30;99.90;;;;;;5045011;28;20032;-79
2021/05/28 07:37:15;;;;;;;11.50;7.53;;;11.40;99.90;;;;;;5047586;28;20031;-79
2021/05/28 07:39:42;;;;;;;7.32;5.57;;;11.50;99.90;;;;;;5071017;28;20045;-79
2021/05/28 07:42:07;;;;;;;7.95;5.60;;;11.70;99.90;;;;;;5071536;28;20095;-79
2021/05/28 07:44:33;;;;;;;7.95;5.75;;;11.80;99.90;;;;;;5072917;28;20028;-79
2021/05/28 07:47:00;;;;;;;6.68;4.53;;;12.00;99.90;;;;;;5071387;28;20028;-79
2021/05/28 07:49:25;;;;;;;6.45;4.75;;;12.20;99.90;;;;;;5072526;28;20399;-79
2021/05/28 07:51:51;;;;;;;7.50;5.20;;;12.40;99.90;;;;;;5072719;28;20024;-79
2021/05/28 07:54:17;;;;;;;7.53;5.28;;;12.50;99.90;;;;;;5072839;28;20039;-79
2021/05/28 07:56:43;;;;;;;6.60;5.05;;;12.50;99.90;;;;;;5072957;28;20078;-79
2021/05/28 07:59:09;;;;;;;6.78;5.53;;;12.60;99.90;;;;;;5072751;28;20024;-79
2021/05/28 08:01:35;;;;;;;9.60;7.47;;;12.60;99.90;;;;;;5072880;28;20016;-79
2021/05/28 08:04:00;;;;;;;11.63;8.95;;;12.60;99.90;;;;;;5072732;28;20100;-79
2021/05/28 08:06:26;;;;;;;11.10;8.25;;;12.70;99.90;;;;;;5072832;28;20503;-79
2021/05/28 08:08:53;;;;;;;9.88;7.75;;;12.80;99.90;;;;;;5072897;28;20028;-80
2021/05/28 08:11:19;;;;;;;10.65;8.07;;;12.80;99.90;;;;;;5073547;28;20029;-79
2021/05/28 08:13:44;;;;;;;12.15;9.48;;;12.90;99.90;;;;;;5060032;28;20107;-79
2021/05/28 08:16:10;;;;;;;11.43;9.60;;;12.90;99.90;;;;;;5061591;28;20024;-79
2021/05/28 08:18:36;;;;;;;12.23;10.40;;;12.90;99.90;;;;;;5058117;28;20129;-79
2021/05/28 08:21:04;;;;;;;15.95;11.75;;;13.10;99.90;;;;;;5059536;28;20024;-79
2021/05/28 08:23:29;;;;;;;13.70;10.90;;;12.90;99.90;;;;;;5057103;28;20043;-79
2021/05/28 08:25:55;;;;;;;13.60;10.52;;;13.00;99.90;;;;;;5056770;28;20472;-79
2021/05/28 08:28:21;;;;;;;11.80;9.48;;;13.00;99.90;;;;;;5057063;28;20029;-79
2021/05/28 08:30:47;;;;;;;15.18;10.60;;;13.00;99.90;;;;;;5055715;28;20476;-78
2021/05/28 08:33:13;;;;;;;13.90;11.00;;;13.00;99.90;;;;;;5060456;28;20472;-79
2021/05/28 08:35:43;;;;;;;12.70;10.05;;;13.00;99.90;;;;;;5057345;28;20021;-79
2021/05/28 08:38:09;;;;;;;11.48;10.27;;;13.00;99.90;;;;;;5058815;28;20533;-79
2021/05/28 08:40:34;;;;;;;13.18;10.43;;;13.10;99.90;;;;;;5056579;28;20028;-79
2021/05/28 08:43:05;;;;;;;11.57;8.82;;;13.00;99.90;;;;;;5056952;28;20017;-79
2021/05/28 08:45:45;;;;;;;14.52;11.10;;;13.00;99.90;;;;;;5058091;28;20009;-79
2021/05/28 08:48:13;;;;;;;12.38;10.10;;;13.00;99.90;;;;;;5056977;28;20483;-79
2021/05/28 08:50:41;;;;;;;13.05;10.00;;;12.90;99.90;;;;;;5070709;28;20056;-79
2021/05/28 08:53:08;;;;;;;12.90;10.00;;;12.90;99.90;;;;;;5056444;28;20488;-79
2021/05/28 08:55:36;;;;;;;9.80;8.15;;;13.10;99.90;;;;;;5055981;28;20017;-79
2021/05/28 08:58:10;;;;;;;10.43;8.60;;;13.30;99.90;;;;;;5071303;28;20954;-79
2021/05/28 09:00:36;;;;;;;8.60;6.82;;;13.50;99.90;;;;;;5069027;28;20362;-79
2021/05/28 09:03:28;;;;;;;9.27;6.75;;;13.60;99.90;;;;;;5057571;28;20021;-79
2021/05/28 09:05:59;;;;;;;10.32;9.20;;;13.80;99.90;;;;;;5057018;28;20024;-79
2021/05/28 09:08:29;;;;;;;13.70;8.80;;;13.80;99.90;;;;;;5056505;28;20043;-79
2021/05/28 09:11:08;;;;;;;11.88;8.45;;;13.80;99.90;;;;;;5057590;28;20484;-79
2021/05/28 09:13:41;;;;;;;8.60;7.53;;;13.80;99.90;;;;;;5055727;28;20029;-79
2021/05/28 09:16:12;;;;;;;9.82;7.35;;;13.80;99.90;;;;;;5072265;28;20476;-79
2021/05/28 09:18:44;;;;;;;14.07;10.82;;;13.90;99.90;;;;;;5055004;28;20024;-79
2021/05/28 09:21:10;;;;;;;10.75;8.63;;;13.90;99.90;;;;;;5057411;28;20056;-79
2021/05/28 09:23:36;;;;;;;8.85;7.05;;;13.90;99.90;;;;;;5054388;28;20033;-80
2021/05/28 09:26:07;;;;;;;10.15;7.97;;;14.10;99.90;;;;;;5058664;28;20041;-79
2021/05/28 09:28:45;;;;;;;9.43;6.85;;;14.20;99.90;;;;;;5054835;28;20021;-79
2021/05/28 09:31:13;;;;;;;12.07;8.02;;;14.30;99.90;;;;;;5059282;28;20025;-79
2021/05/28 09:33:42;;;;;;;11.13;7.13;;;14.40;99.90;;;;;;5056643;28;20020;-79
2021/05/28 09:36:12;;;;;;;8.82;6.75;;;14.50;99.90;;;;;;5068415;28;20055;-79
2021/05/28 09:38:39;;;;;;;12.10;7.40;;;14.60;99.90;;;;;;5055346;28;20190;-80
2021/05/28 09:41:05;;;;;;;8.13;6.20;;;14.70;99.90;;;;;;5082553;28;20024;-80
2021/05/28 09:43:31;;;;;;;8.82;5.38;;;14.70;99.90;;;;;;5094004;28;20016;-80
2021/05/28 09:45:57;;;;;;;6.35;5.32;;;15.00;99.90;;;;;;5091876;28;20127;-80
2021/05/28 09:48:28;;;;;;;6.72;5.47;;;15.20;99.90;;;;;;5092058;28;20519;-81
2021/05/28 09:51:05;;;;;;;10.82;7.15;;;15.40;99.90;;;;;;5093028;28;20023;-81
2021/05/28 09:53:42;;;;;;;8.75;7.63;;;15.50;99.90;;;;;;5091682;28;20531;-80
2021/05/28 09:56:27;;;;;;;6.78;5.45;;;15.50;99.90;;;;;;5093148;28;20016;-83
2021/05/28 09:59:01;;;;;;;6.20;5.60;;;15.70;99.90;;;;;;5068881;28;20361;-80
2021/05/28 10:01:30;;;;;;;7.63;6.70;;;16.00;99.90;;;;;;5091975;28;20024;-78
2021/05/28 10:04:09;;;;;;;7.38;5.85;;;16.20;98.70;;;;;;5066512;28;20020;-86
2021/05/28 10:06:42;;;;;;;4.50;4.10;;;16.40;98.10;;;;;;5071819;28;20080;-79
2021/05/28 10:09:09;;;;;;;4.63;4.15;;;17.80;98.80;;;;;;5076256;28;20039;-83
2021/05/28 10:11:38;;;;;;;5.05;4.57;;;19.00;96.80;;;;;;5087745;28;20020;-79
2021/05/28 10:14:05;;;;;;;4.20;3.53;;;19.70;94.60;;;;;;5083100;28;20035;-80
2021/05/28 10:16:31;;;;;;;3.25;2.30;;;21.60;93.30;;;;;;5088140;28;20024;-79
2021/05/28 10:18:57;;;;;;;3.90;2.75;;;23.60;91.20;;;;;;5081796;28;20061;-80
2021/05/28 10:21:24;;;;;;;3.75;3.40;;;25.30;86.80;;;;;;5073600;28;20031;-79
2021/05/28 10:23:51;;;;;;;3.67;2.95;;;26.80;73.60;;;;;;5073972;28;20024;-79
2021/05/28 10:26:23;;;;;;;5.05;4.55;;;27.80;66.70;;;;;;5073438;28;20021;-80
2021/05/28 10:28:48;;;;;;;4.90;4.38;;;29.10;56.00;;;;;;5073922;28;20107;-79
2021/05/28 10:31:14;;;;;;;6.32;4.35;;;28.30;50.00;;;;;;5072076;28;20127;-80
2021/05/28 10:33:52;;;;;;;4.03;3.63;;;28.30;50.20;;;;;;5058713;28;20063;-80
2021/05/28 10:36:43;;;;;;;2.33;1.80;;;28.00;50.10;;;;;;5076884;28;20016;-86
2021/05/28 10:39:10;;;;;;;2.47;2.00;;;29.30;52.80;;;;;;5084401;28;20051;-81
2021/05/28 10:41:41;;;;;;;2.15;1.90;;;30.70;52.60;;;;;;5072978;28;20103;-82
2021/05/28 10:44:09;;;;;;;2.78;2.10;;;31.90;49.40;;;;;;5072806;28;20066;-80
2021/05/28 10:46:35;;;;;;;2.42;2.10;;;31.80;46.60;;;;;;5077293;28;20019;-80
2021/05/28 10:49:08;;;;;;;2.90;2.53;;;31.20;44.90;;;;;;5092831;28;20050;-81
2021/05/28 10:51:33;;;;;;;3.15;2.85;;;31.20;45.60;;;;;;5092737;28;20008;-80
2021/05/28 10:53:59;;;;;;;3.05;2.75;;;31.70;45.40;;;;;;5092767;28;20023;-81
2021/05/28 10:56:35;;;;;;;3.03;2.72;;;32.10;44.50;;;;;;5082546;28;20017;-78
2021/05/28 10:59:09;;;;;;;3.30;3.00;;;32.40;43.80;;;;;;5067450;28;20099;-77
2021/05/28 11:01:44;;;;;;;2.65;2.22;;;32.20;42.70;;;;;;5070894;28;20090;-77
2021/05/28 11:04:12;;;;;;;2.55;2.35;;;32.60;43.00;;;;;;5071884;28;20032;-78
2021/05/28 11:06:56;;;;;;;4.43;2.55;;;33.00;42.40;;;;;;5086003;28;20035;-78
2021/05/28 11:09:40;;;;;;;4.03;3.53;;;34.70;41.90;;;;;;5090679;28;20016;-78
2021/05/28 11:12:36;;;;;;;2.88;2.30;;;35.20;39.50;;;;;;5089211;28;20020;-77
2021/05/28 11:15:15;;;;;;;2.67;2.42;;;35.50;40.20;;;;;;5078291;28;20063;-78
2021/05/28 11:17:55;;;;;;;2.45;2.25;;;36.70;39.00;;;;;;5078209;28;20488;-78
2021/05/28 11:20:31;;;;;;;2.45;2.22;;;37.40;38.80;;;;;;5078916;28;20025;-78
2021/05/28 11:22:58;;;;;;;2.58;2.38;;;36.90;36.90;;;;;;5058838;28;20020;-78
2021/05/28 11:25:24;;;;;;;3.40;2.90;;;35.70;37.60;;;;;;5071304;28;20024;-79
2021/05/28 11:28:08;;;;;;;3.13;2.60;;;34.50;38.40;;;;;;5071419;28;20371;-78
2021/05/28 11:30:45;;;;;;;2.28;1.77;;;33.20;39.30;;;;;;5072802;28;20023;-78
2021/05/28 11:33:33;;;;;;;3.65;2.47;;;33.10;41.10;;;;;;5072318;28;20016;-81
2021/05/28 11:35:59;;;;;;;2.58;1.95;;;34.30;39.20;;;;;;5072666;28;20028;-79
2021/05/28 11:38:33;;;;;;;2.70;2.25;;;35.10;38.40;;;;;;5072712;28;20052;-78
2021/05/28 11:40:59;;;;;;;2.55;1.98;;;36.30;36.90;;;;;;5072031;28;20103;-78
2021/05/28 11:43:25;;;;;;;2.00;1.80;;;36.80;35.90;;;;;;5064770;28;20531;-78
2021/05/28 11:45:53;;;;;;;2.10;1.90;;;37.30;36.00;;;;;;5089485;28;20028;-79
2021/05/28 11:48:19;;;;;;;;;;;37.40;35.20;;;;;;5087090;28;20070;-80
2021/05/28 11:50:51;;;;;;;4.15;3.72;;;37.60;35.50;;;;;;5088506;28;20291;-78
2021/05/28 11:53:18;;;;;;;2.55;2.35;;;37.10;34.10;;;;;;5087008;28;20021;-78
2021/05/28 11:55:52;;;;;;;2.70;2.50;;;36.90;35.00;;;;;;5089641;28;20065;-78
2021/05/28 11:58:28;;;;;;;2.72;2.53;;;37.00;34.70;;;;;;5087102;28;20020;-79
2021/05/28 12:00:55;;;;;;;2.53;2.00;;;37.30;34.90;;;;;;5088743;28;20016;-78
2021/05/28 12:03:21;;;;;;;3.25;2.97;;;36.80;34.60;;;;;;5086760;28;20024;-79
2021/05/28 12:05:49;;;;;;;2.60;2.40;;;35.70;34.90;;;;;;5067027;28;20040;-80
2021/05/28 12:08:17;;;;;;;5.45;4.10;;;35.30;36.00;;;;;;5088730;28;20024;-78
2021/05/28 12:10:47;;;;;;;;;;;34.60;34.90;;;;;;5088709;28;20483;-79
2021/05/28 12:13:18;;;;;;;2.15;1.80;;;34.00;36.20;;;;;;5071977;28;19905;-81
2021/05/28 12:15:49;;;;;;;2.25;1.85;;;34.00;37.00;;;;;;5071118;28;20017;-79
2021/05/28 12:18:31;;;;;;;2.50;2.10;;;33.30;36.80;;;;;;5072574;28;20416;-79
2021/05/28 12:21:12;;;;;;;1.83;1.67;;;33.70;36.90;;;;;;5070823;28;20434;-79
2021/05/28 12:23:46;;;;;;;1.65;1.45;;;34.50;36.40;;;;;;5072759;28;20024;-79
2021/05/28 12:26:15;;;;;;;1.52;1.15;;;34.70;36.30;;;;;;5072141;28;20028;-79
2021/05/28 12:28:55;;;;;;;2.63;1.52;;;35.00;35.70;;;;;;5072455;28;20060;-78
2021/05/28 12:31:22;;;;;;;1.35;1.05;;;35.50;35.40;;;;;;5072500;28;20048;-78
2021/05/28 12:33:55;;;;;;;1.33;1.05;;;35.70;35.30;;;;;;5072505;28;20028;-78
2021/05/28 12:36:38;;;;;;;1.98;1.05;;;35.10;34.00;;;;;;5072338;28;20025;-78
2021/05/28 12:39:09;;;;;;;1.10;0.90;;;34.40;34.40;;;;;;5071173;28;20403;-78
2021/05/28 12:41:36;;;;;;;0.93;0.77;;;34.00;35.10;;;;;;5072364;28;20077;-79
2021/05/28 12:44:03;;;;;;;1.10;0.80;;;34.70;34.10;;;;;;5072706;28;20028;-80
2021/05/28 12:46:34;;;;;;;1.13;0.90;;;34.20;33.10;;;;;;5072379;28;20031;-79
2021/05/28 12:49:04;;;;;;;1.63;1.00;;;33.20;33.70;;;;;;5072553;28;20029;-80
2021/05/28 12:51:38;;;;;;;2.85;1.30;;;32.20;33.70;;;;;;5072214;28;20032;-80
2021/05/28 12:54:26;;;;;;;1.35;0.88;;;31.10;33.50;;;;;;5071596;28;20039;-80